Time;durP1;ratioP1;P1;durP2;ratioP2;P2;SDS_P1;SDS_P2;PMS_P1;PMS_P2;Temp;Humidity;BMP_temperature;BMP_pressure;BME280_temperature;BME280_humidity;BME280_pressure;Samples;Min_cycle;Max_cycle;Signal;HPM_P1;HPM_P2
2023/04/07 00:01:51;;;;;;;17.35;9.02;;;;;;;7.73;100.00;101346.75;4958953;28;20482;-83
2023/04/07 00:04:16;;;;;;;18.15;8.85;;;;;;;7.74;100.00;101348.50;4948081;28;20050;-83
2023/04/07 00:06:42;;;;;;;14.73;9.07;;;;;;;7.72;100.00;101342.44;4965193;28;20028;-81
2023/04/07 00:09:10;;;;;;;18.05;8.70;;;;;;;7.72;100.00;101351.97;4963434;28;20042;-82
2023/04/07 00:11:36;;;;;;;14.05;8.20;;;;;;;7.69;100.00;101339.88;4950306;28;20574;-80
2023/04/07 00:14:02;;;;;;;13.98;7.82;;;;;;;7.68;99.78;101348.53;4955504;28;20339;-80
2023/04/07 00:16:27;;;;;;;13.38;7.75;;;;;;;7.69;99.30;101345.06;4953803;28;20045;-83
2023/04/07 00:18:52;;;;;;;17.55;8.57;;;;;;;7.66;99.75;101345.09;4948151;28;20038;-84
2023/04/07 00:21:18;;;;;;;13.70;7.90;;;;;;;7.64;99.67;101349.41;4959805;28;20500;-82
2023/04/07 00:23:43;;;;;;;15.48;8.25;;;;;;;7.64;99.76;101354.59;4961802;28;20037;-84
2023/04/07 00:26:09;;;;;;;14.30;7.68;;;;;;;7.62;99.66;101355.44;4952655;28;20030;-84
2023/04/07 00:28:34;;;;;;;15.75;8.07;;;;;;;7.62;99.52;101356.34;4944694;28;20483;-81
2023/04/07 00:31:00;;;;;;;12.18;7.25;;;;;;;7.62;99.80;101351.16;4958513;28;20031;-80
2023/04/07 00:33:25;;;;;;;14.90;8.13;;;;;;;7.61;99.97;101349.44;4964862;28;20059;-82
2023/04/07 00:35:50;;;;;;;14.55;8.80;;;;;;;7.62;99.50;101348.56;4967051;28;20027;-80
2023/04/07 00:38:16;;;;;;;16.75;8.18;;;;;;;7.63;99.84;101349.41;4955844;28;20035;-83
2023/04/07 00:40:41;;;;;;;15.55;8.35;;;;;;;7.62;100.00;101347.69;4965746;28;20026;-85
2023/04/07 00:43:07;;;;;;;15.57;8.55;;;;;;;7.62;100.00;101353.75;4972653;28;20097;-83
2023/04/07 00:45:32;;;;;;;15.75;8.90;;;;;;;7.62;100.00;101347.69;4956515;28;20054;-79
2023/04/07 00:47:58;;;;;;;15.02;8.75;;;;;;;7.62;99.81;101345.09;4963250;28;20030;-81
2023/04/07 00:50:23;;;;;;;13.75;7.75;;;;;;;7.59;99.35;101345.97;4968838;28;20067;-84
2023/04/07 00:52:53;;;;;;;13.57;7.95;;;;;;;7.57;99.05;101343.41;4954643;28;20027;-84
2023/04/07 00:55:18;;;;;;;14.55;8.10;;;;;;;7.57;98.46;101343.41;4954797;28;20114;-81
2023/04/07 00:57:45;;;;;;;13.02;7.53;;;;;;;7.54;98.70;101342.53;4953951;28;20131;-83
2023/04/07 01:00:11;;;;;;;11.45;6.93;;;;;;;7.53;98.53;101351.19;4949579;28;20078;-82
2023/04/07 01:02:41;;;;;;;11.20;6.90;;;;;;;7.51;98.75;101350.34;4961916;28;20490;-82
2023/04/07 01:05:13;;;;;;;12.70;6.72;;;;;;;7.48;98.66;101347.78;4943274;28;20047;-82
2023/04/07 01:07:50;;;;;;;11.90;6.40;;;;;;;7.47;98.71;101340.88;4946075;28;20470;-82
2023/04/07 01:10:21;;;;;;;9.70;5.38;;;;;;;7.44;98.68;101342.59;4956737;28;20034;-81
2023/04/07 01:13:22;;;;;;;10.82;5.78;;;;;;;7.43;98.26;101353.81;4961736;28;20395;-80
2023/04/07 01:15:51;;;;;;;11.95;5.40;;;;;;;7.40;98.26;101348.66;4950680;28;20023;-84
2023/04/07 01:18:21;;;;;;;8.98;5.10;;;;;;;7.38;98.02;101342.63;4944296;28;20027;-81
2023/04/07 01:20:50;;;;;;;8.45;4.90;;;;;;;7.38;97.91;101352.97;4948594;28;20110;-84
2023/04/07 01:23:41;;;;;;;8.98;4.68;;;;;;;7.38;97.80;101349.53;4953863;28;20037;-81
2023/04/07 01:26:19;;;;;;;8.73;4.40;;;;;;;7.36;97.94;101343.50;4932786;28;20031;-83
2023/04/07 01:29:06;;;;;;;8.32;4.18;;;;;;;7.34;97.38;101348.69;4951836;28;20117;-84
2023/04/07 01:31:33;;;;;;;7.10;4.25;;;;;;;7.29;97.52;101340.94;4937022;28;20035;-81
2023/04/07 01:34:01;;;;;;;5.93;3.88;;;;;;;7.30;97.60;101352.16;4940720;28;20050;-79
2023/04/07 01:36:27;;;;;;;8.57;3.88;;;;;;;7.29;96.89;101347.84;4956181;28;20175;-79
2023/04/07 01:38:53;;;;;;;7.38;3.80;;;;;;;7.25;96.97;101353.91;4951452;28;20462;-79
2023/04/07 01:41:19;;;;;;;7.43;3.80;;;;;;;7.24;97.07;101360.81;4958007;28;20036;-79
2023/04/07 01:43:46;;;;;;;9.63;3.95;;;;;;;7.23;96.79;101355.63;4958030;28;20042;-79
2023/04/07 01:46:13;;;;;;;5.80;3.47;;;;;;;7.24;96.76;101367.69;4961728;28;20023;-80
2023/04/07 01:48:39;;;;;;;6.18;3.40;;;;;;;7.19;96.68;101367.72;4952405;28;20069;-79
2023/04/07 01:51:06;;;;;;;8.55;3.90;;;;;;;7.18;96.58;101375.47;4953825;28;20063;-79
2023/04/07 01:53:36;;;;;;;6.68;3.72;;;;;;;7.17;96.88;101374.63;4953051;28;20034;-79
2023/04/07 01:56:02;;;;;;;7.80;3.45;;;;;;;7.16;97.25;101369.47;4951385;28;20031;-79
2023/04/07 01:58:28;;;;;;;9.10;3.72;;;;;;;7.16;96.72;101372.91;4955751;28;20340;-79
2023/04/07 02:00:53;;;;;;;9.23;4.15;;;;;;;7.14;96.62;101374.63;4948920;28;20114;-79
2023/04/07 02:03:39;;;;;;;7.55;4.22;;;;;;;7.12;96.88;101381.53;4953651;28;20038;-80
2023/04/07 02:06:08;;;;;;;6.95;3.88;;;;;;;7.10;97.04;101378.97;4951161;28;20039;-79
2023/04/07 02:08:41;;;;;;;6.28;3.45;;;;;;;7.13;96.28;101380.66;4946259;28;20138;-79
2023/04/07 02:11:09;;;;;;;6.43;3.53;;;;;;;7.09;96.60;101379.81;4954691;28;20070;-79
2023/04/07 02:13:36;;;;;;;6.75;3.35;;;;;;;7.10;96.68;101378.97;4955620;28;20505;-80
2023/04/07 02:16:01;;;;;;;6.10;3.55;;;;;;;7.10;96.65;101376.38;4955070;28;20031;-79
2023/04/07 02:18:29;;;;;;;5.97;3.42;;;;;;;7.11;96.64;101385.88;4953882;28;20098;-80
2023/04/07 02:20:55;;;;;;;8.32;3.28;;;;;;;7.10;97.14;101389.31;4950362;28;20035;-79
2023/04/07 02:23:20;;;;;;;6.43;3.67;;;;;;;7.10;96.65;101391.91;4950946;28;20027;-79
2023/04/07 02:25:46;;;;;;;6.32;3.55;;;;;;;7.09;96.89;101392.75;4953101;28;20036;-79
2023/04/07 02:28:11;;;;;;;6.90;3.70;;;;;;;7.11;96.22;101390.16;4950587;28;20031;-80
2023/04/07 02:30:36;;;;;;;6.43;3.33;;;;;;;7.12;95.99;101392.75;4955233;28;20044;-79
2023/04/07 02:33:01;;;;;;;7.50;3.10;;;;;;;7.11;96.03;101388.44;4963248;28;20027;-79
2023/04/07 02:35:27;;;;;;;6.63;3.22;;;;;;;7.10;96.33;101388.44;4957116;28;20395;-79
2023/04/07 02:37:52;;;;;;;5.47;2.90;;;;;;;7.08;96.45;101388.44;4952704;28;20106;-79
2023/04/07 02:40:18;;;;;;;4.93;2.83;;;;;;;7.08;96.77;101390.19;4949817;28;20583;-79
2023/04/07 02:42:43;;;;;;;5.57;3.17;;;;;;;7.06;96.82;101385.00;4956160;28;20031;-79
2023/04/07 02:45:09;;;;;;;6.15;2.85;;;;;;;7.05;96.91;101380.69;4953457;28;21310;-79
2023/04/07 02:47:35;;;;;;;4.13;2.67;;;;;;;7.05;97.42;101382.44;4952974;28;20031;-79
2023/04/07 02:50:01;;;;;;;6.30;2.90;;;;;;;7.05;97.51;101382.44;4961346;28;20389;-80
2023/04/07 02:52:26;;;;;;;5.50;2.83;;;;;;;7.05;97.61;101387.59;4959211;28;20031;-80
2023/04/07 02:54:52;;;;;;;5.60;3.08;;;;;;;7.05;97.54;101380.69;4952934;28;20074;-80
2023/04/07 02:57:17;;;;;;;5.22;2.90;;;;;;;7.06;97.89;101374.66;4944072;28;20031;-79
2023/04/07 02:59:42;;;;;;;7.57;3.47;;;;;;;7.07;97.47;101389.31;4954749;28;20031;-80
2023/04/07 03:02:08;;;;;;;6.30;3.90;;;;;;;7.05;97.32;101378.09;4947261;28;20174;-80
2023/04/07 03:04:33;;;;;;;7.15;3.50;;;;;;;7.05;97.28;101378.09;4948079;28;20142;-79
2023/04/07 03:06:59;;;;;;;6.65;3.92;;;;;;;7.04;96.96;101381.56;4954210;28;20023;-80
2023/04/07 03:09:24;;;;;;;7.10;3.80;;;;;;;7.06;97.11;101379.81;4952060;28;20122;-80
2023/04/07 03:11:49;;;;;;;6.20;3.40;;;;;;;7.05;97.13;101379.84;4954199;28;20030;-80
2023/04/07 03:14:15;;;;;;;6.45;3.63;;;;;;;7.05;97.04;101383.28;4953215;28;20038;-80
2023/04/07 03:16:41;;;;;;;6.72;3.80;;;;;;;7.06;97.51;101384.16;4949468;28;20024;-80
2023/04/07 03:19:07;;;;;;;6.97;3.65;;;;;;;7.06;97.61;101382.41;4954515;28;20042;-80
2023/04/07 03:21:33;;;;;;;7.40;3.63;;;;;;;7.05;97.48;101385.03;4950358;28;20045;-80
2023/04/07 03:23:58;;;;;;;6.47;3.45;;;;;;;7.06;97.26;101387.59;4947441;28;20110;-80
2023/04/07 03:26:23;;;;;;;7.32;3.55;;;;;;;7.07;97.36;101388.47;4955609;28;20059;-80
2023/04/07 03:28:49;;;;;;;6.35;3.55;;;;;;;7.07;97.40;101389.31;4951473;28;20027;-80
2023/04/07 03:31:14;;;;;;;5.32;3.42;;;;;;;7.06;97.20;101385.00;4956624;28;20466;-80
2023/04/07 03:33:40;;;;;;;6.93;3.75;;;;;;;7.07;97.14;101391.91;4946441;28;20542;-80
2023/04/07 03:36:06;;;;;;;6.72;3.63;;;;;;;7.08;97.38;101385.88;4953868;28;20087;-80
2023/04/07 03:38:31;;;;;;;6.28;3.83;;;;;;;7.09;97.10;101391.88;4947973;28;20534;-80
2023/04/07 03:40:56;;;;;;;6.28;3.50;;;;;;;7.08;97.39;101385.88;4952140;28;20030;-80
2023/04/07 03:43:22;;;;;;;6.75;3.65;;;;;;;7.08;97.58;101385.88;4955833;28;20062;-80
2023/04/07 03:45:47;;;;;;;6.45;3.47;;;;;;;7.09;96.92;101386.72;4951942;28;20089;-80
2023/04/07 03:48:12;;;;;;;5.88;3.47;;;;;;;7.06;97.39;101392.75;4947484;28;20471;-80
2023/04/07 03:50:39;;;;;;;8.00;3.95;;;;;;;7.08;97.21;101390.19;4952444;28;20541;-80
2023/04/07 03:53:04;;;;;;;5.93;3.58;;;;;;;7.05;97.26;101396.22;4953901;28;20034;-80
2023/04/07 03:55:30;;;;;;;6.93;3.95;;;;;;;7.04;97.56;101397.06;4953997;28;20098;-80
2023/04/07 03:57:56;;;;;;;6.32;3.70;;;;;;;7.03;97.58;101397.09;4949807;28;20027;-80
2023/04/07 04:00:22;;;;;;;8.15;3.95;;;;;;;7.04;97.15;101399.66;4941830;28;20489;-80
2023/04/07 04:02:47;;;;;;;6.85;3.40;;;;;;;7.03;97.36;101397.94;4951513;28;20027;-80
2023/04/07 04:05:12;;;;;;;5.60;3.42;;;;;;;7.04;97.25;101404.00;4951825;28;20050;-80
2023/04/07 04:07:37;;;;;;;7.25;3.22;;;;;;;7.06;97.38;101399.69;4965659;28;20040;-80
2023/04/07 04:10:03;;;;;;;7.53;3.42;;;;;;;7.07;96.67;101402.25;4947543;28;20064;-81
2023/04/07 04:12:28;;;;;;;6.50;3.63;;;;;;;7.07;97.21;101399.66;4945614;28;20027;-80
2023/04/07 04:14:54;;;;;;;8.38;3.65;;;;;;;7.07;97.22;101394.50;4949034;28;20139;-80
2023/04/07 04:17:19;;;;;;;7.82;3.97;;;;;;;7.06;96.67;101403.13;4947530;28;20031;-80
2023/04/07 04:19:44;;;;;;;9.95;3.80;;;;;;;7.06;97.20;101395.34;4943154;28;20422;-80
2023/04/07 04:22:10;;;;;;;7.80;4.15;;;;;;;7.05;96.96;101396.22;4944669;28;20023;-80
2023/04/07 04:24:35;;;;;;;9.15;4.00;;;;;;;7.04;97.00;101391.91;4956048;28;20114;-80
2023/04/07 04:27:00;;;;;;;9.48;4.20;;;;;;;7.03;96.95;101395.34;4952440;28;20131;-80
2023/04/07 04:29:26;;;;;;;9.10;3.55;;;;;;;7.04;97.05;101398.81;4955768;28;20058;-80
2023/04/07 04:31:51;;;;;;;9.88;3.63;;;;;;;7.03;97.14;101397.94;4952341;28;20015;-80
2023/04/07 04:34:16;;;;;;;7.63;3.58;;;;;;;7.02;97.13;101396.22;4954371;28;20714;-80
2023/04/07 04:36:42;;;;;;;7.13;3.42;;;;;;;7.03;96.58;101397.09;4958821;28;20034;-80
2023/04/07 04:39:07;;;;;;;8.07;3.80;;;;;;;7.00;97.13;101408.31;4950440;28;20038;-80
2023/04/07 04:41:32;;;;;;;8.25;3.78;;;;;;;6.99;96.98;101406.59;4949728;28;20043;-80
2023/04/07 04:43:58;;;;;;;7.85;3.60;;;;;;;6.99;97.08;101406.59;4955381;28;20035;-80
2023/04/07 04:46:23;;;;;;;9.25;3.67;;;;;;;6.99;96.59;101411.78;4948731;28;20031;-80
2023/04/07 04:48:50;;;;;;;8.63;3.60;;;;;;;6.97;96.91;101409.16;4954087;28;20057;-80
2023/04/07 04:51:15;;;;;;;8.88;4.10;;;;;;;6.98;96.71;101415.22;4947015;28;20118;-80
2023/04/07 04:53:41;;;;;;;6.93;3.42;;;;;;;6.96;96.90;101411.78;4960104;28;20110;-80
2023/04/07 04:56:07;;;;;;;8.85;4.00;;;;;;;6.96;96.87;101420.38;4961587;28;20055;-80
2023/04/07 04:58:34;;;;;;;11.73;4.97;;;;;;;6.98;96.28;101420.38;4964234;28;20058;-80
2023/04/07 05:01:00;;;;;;;8.88;4.10;;;;;;;6.95;96.64;101422.97;4953501;28;20069;-80
2023/04/07 05:03:27;;;;;;;13.50;4.25;;;;;;;6.94;96.73;101423.84;4949131;28;20123;-79
2023/04/07 05:05:52;;;;;;;11.13;4.30;;;;;;;6.93;97.04;101430.72;4956707;28;20044;-79
2023/04/07 05:08:17;;;;;;;9.48;4.18;;;;;;;6.93;96.97;101433.31;4954309;28;20031;-79
2023/04/07 05:10:43;;;;;;;7.50;3.60;;;;;;;6.92;97.32;101435.91;4938193;28;20454;-79
2023/04/07 05:13:08;;;;;;;10.50;4.28;;;;;;;6.92;97.25;101428.16;4941051;28;20035;-79
2023/04/07 05:15:33;;;;;;;8.45;4.10;;;;;;;6.93;96.94;101430.72;4953541;28;20043;-79
2023/04/07 05:17:59;;;;;;;9.32;4.30;;;;;;;6.95;96.71;101430.75;4953398;28;20027;-79
2023/04/07 05:20:24;;;;;;;11.60;4.03;;;;;;;6.94;96.69;101434.19;4951752;28;20031;-79
2023/04/07 05:22:49;;;;;;;10.65;4.10;;;;;;;6.95;97.06;101435.91;4948308;28;20118;-79
2023/04/07 05:25:15;;;;;;;9.05;3.95;;;;;;;6.96;96.46;101435.06;4953130;28;20041;-79
2023/04/07 05:27:40;;;;;;;9.32;4.05;;;;;;;6.97;96.92;101440.22;4955256;28;20030;-79
2023/04/07 05:30:06;;;;;;;10.15;4.13;;;;;;;6.97;97.04;101435.03;4955616;28;20085;-79
2023/04/07 05:32:31;;;;;;;11.98;4.90;;;;;;;6.99;96.67;101437.63;4946587;28;20042;-79
2023/04/07 05:34:57;;;;;;;10.73;4.32;;;;;;;7.00;96.71;101444.53;4952343;28;20027;-79
2023/04/07 05:37:22;;;;;;;12.02;4.15;;;;;;;7.00;97.22;101444.53;4951654;28;20521;-79
2023/04/07 05:39:47;;;;;;;11.05;4.40;;;;;;;7.02;96.68;101442.78;4952584;28;20047;-79
2023/04/07 05:42:13;;;;;;;14.00;4.65;;;;;;;7.01;96.52;101451.41;4947821;28;20120;-80
2023/04/07 05:44:38;;;;;;;11.60;4.93;;;;;;;7.02;96.88;101447.09;4953992;28;20065;-80
2023/04/07 05:47:07;;;;;;;9.15;4.35;;;;;;;7.03;96.95;101449.69;4950150;28;20039;-79
2023/04/07 05:49:33;;;;;;;11.00;4.88;;;;;;;7.04;96.87;101450.56;4950641;28;20051;-79
2023/04/07 05:51:58;;;;;;;12.45;5.22;;;;;;;7.07;96.76;101451.41;4954361;28;20027;-79
2023/04/07 05:54:23;;;;;;;11.10;4.90;;;;;;;7.10;96.78;101461.75;4950737;28;20372;-80
2023/04/07 05:56:49;;;;;;;12.32;4.43;;;;;;;7.11;97.15;101463.47;4951129;28;20055;-80
2023/04/07 05:59:14;;;;;;;9.38;4.70;;;;;;;7.12;96.83;101460.03;4954342;28;20061;-80
2023/04/07 06:01:41;;;;;;;11.88;5.70;;;;;;;7.12;96.72;101461.75;4951076;28;20038;-78
2023/04/07 06:04:06;;;;;;;12.73;5.00;;;;;;;7.12;97.36;101462.63;4945927;28;20079;-79
2023/04/07 06:06:31;;;;;;;11.38;5.32;;;;;;;7.13;97.19;101471.22;4953180;28;20059;-79
2023/04/07 06:08:57;;;;;;;13.63;5.43;;;;;;;7.13;97.71;101466.94;4952521;28;20451;-79
2023/04/07 06:11:22;;;;;;;12.20;5.20;;;;;;;7.14;97.75;101472.97;4953005;28;20059;-79
2023/04/07 06:13:47;;;;;;;12.27;5.10;;;;;;;7.14;97.78;101479.00;4950892;28;20031;-79
2023/04/07 06:16:12;;;;;;;15.60;5.55;;;;;;;7.16;97.52;101481.59;4948101;28;20027;-79
2023/04/07 06:18:38;;;;;;;10.05;4.85;;;;;;;7.16;97.69;101480.75;4946658;28;20038;-80
2023/04/07 06:21:04;;;;;;;12.68;4.47;;;;;;;7.18;97.11;101479.84;4947113;28;20037;-79
2023/04/07 06:23:29;;;;;;;10.80;4.90;;;;;;;7.18;97.60;101484.16;4937503;28;20027;-79
2023/04/07 06:25:55;;;;;;;11.73;4.93;;;;;;;7.20;97.64;101490.19;4948375;28;20046;-80
2023/04/07 06:28:20;;;;;;;13.23;4.65;;;;;;;7.25;97.65;101485.88;4947271;28;20385;-80
2023/04/07 06:30:46;;;;;;;8.68;4.63;;;;;;;7.26;97.49;101495.38;4962875;28;20033;-80
2023/04/07 06:33:11;;;;;;;11.65;5.18;;;;;;;7.29;97.85;101506.56;4952101;28;20031;-79
2023/04/07 06:35:38;;;;;;;9.40;4.88;;;;;;;7.31;97.78;101501.41;4952926;28;20070;-79
2023/04/07 06:38:03;;;;;;;8.07;4.70;;;;;;;7.32;97.50;101494.50;4949077;28;20037;-79
2023/04/07 06:40:29;;;;;;;8.73;4.30;;;;;;;7.33;97.07;101493.63;4956824;28;20031;-80
2023/04/07 06:42:55;;;;;;;10.55;4.55;;;;;;;7.32;96.52;101492.78;4956842;28;20106;-79
2023/04/07 06:45:20;;;;;;;8.38;4.32;;;;;;;7.32;96.63;101495.38;4948120;28;20035;-80
2023/04/07 06:47:46;;;;;;;11.43;4.60;;;;;;;7.33;96.92;101502.28;4947903;28;20034;-80
2023/04/07 06:50:11;;;;;;;9.80;4.80;;;;;;;7.34;96.82;101506.59;4939053;28;20042;-81
2023/04/07 06:52:36;;;;;;;7.95;4.32;;;;;;;7.35;96.28;101512.63;4940224;28;20121;-81
2023/04/07 06:55:02;;;;;;;9.90;4.45;;;;;;;7.33;95.56;101523.00;4950248;28;20038;-81
2023/04/07 06:57:27;;;;;;;9.60;4.80;;;;;;;7.33;95.99;101509.16;4952886;28;20030;-80
2023/04/07 06:59:53;;;;;;;10.23;4.50;;;;;;;7.34;95.88;101511.78;4934585;28;20450;-81
2023/04/07 07:02:18;;;;;;;8.38;4.05;;;;;;;7.34;94.79;101522.13;4950664;28;20037;-80
2023/04/07 07:04:43;;;;;;;8.07;4.03;;;;;;;7.34;95.18;101522.13;4950536;28;20074;-81
2023/04/07 07:07:09;;;;;;;5.70;3.42;;;;;;;7.35;94.32;101523.81;4947323;28;20027;-80
2023/04/07 07:09:35;;;;;;;6.05;3.30;;;;;;;7.34;94.23;101532.47;4946643;28;20062;-81
2023/04/07 07:12:02;;;;;;;8.90;3.80;;;;;;;7.36;94.54;101525.53;4947911;28;20462;-80
2023/04/07 07:14:27;;;;;;;6.32;3.10;;;;;;;7.35;94.16;101531.59;4940822;28;20443;-79
2023/04/07 07:16:52;;;;;;;5.75;3.30;;;;;;;7.37;94.14;101529.00;4945906;28;20044;-80
2023/04/07 07:19:17;;;;;;;7.15;3.65;;;;;;;7.39;94.33;101524.69;4931461;28;20039;-79
2023/04/07 07:21:43;;;;;;;6.93;3.28;;;;;;;7.41;94.22;101534.19;4947158;28;20019;-79
2023/04/07 07:24:08;;;;;;;6.82;3.40;;;;;;;7.45;94.32;101532.44;4948601;28;20062;-80
2023/04/07 07:26:33;;;;;;;6.45;3.72;;;;;;;7.50;94.35;101533.31;4945260;28;20031;-80
2023/04/07 07:28:59;;;;;;;8.20;3.70;;;;;;;7.54;94.22;101534.16;4942001;28;20090;-80
2023/04/07 07:31:24;;;;;;;7.53;3.85;;;;;;;7.58;94.35;101535.88;4945323;28;20438;-80
2023/04/07 07:33:50;;;;;;;5.50;3.33;;;;;;;7.64;94.33;101535.00;4945306;28;20035;-80
2023/04/07 07:36:16;;;;;;;6.63;3.88;;;;;;;7.69;93.50;101539.28;4946432;28;20395;-80
2023/04/07 07:38:41;;;;;;;7.88;3.58;;;;;;;7.72;93.73;101544.47;4944448;28;20031;-80
2023/04/07 07:41:07;;;;;;;9.00;3.92;;;;;;;7.78;93.84;101547.91;4947413;28;20061;-80
2023/04/07 07:43:32;;;;;;;6.88;3.50;;;;;;;7.83;93.31;101547.03;4946555;28;20027;-80
2023/04/07 07:45:57;;;;;;;9.00;3.38;;;;;;;7.84;93.09;101545.31;4952026;28;20070;-80
2023/04/07 07:48:22;;;;;;;7.35;3.42;;;;;;;7.88;92.56;101549.59;4951108;28;20023;-80
2023/04/07 07:50:48;;;;;;;6.65;3.25;;;;;;;7.90;91.11;101550.47;4952119;28;20446;-80
2023/04/07 07:53:13;;;;;;;5.40;3.10;;;;;;;7.92;90.84;101556.50;4949123;28;20019;-80
2023/04/07 07:55:39;;;;;;;6.57;3.13;;;;;;;7.95;90.80;101550.44;4947898;28;20430;-80
2023/04/07 07:58:04;;;;;;;5.63;2.95;;;;;;;8.01;90.67;101561.69;4947250;28;20031;-80
2023/04/07 08:00:29;;;;;;;4.93;2.72;;;;;;;8.07;89.40;101565.09;4946212;28;20023;-80
2023/04/07 08:02:55;;;;;;;5.00;2.60;;;;;;;8.09;89.50;101564.25;4948456;28;20471;-80
2023/04/07 08:05:20;;;;;;;7.53;3.20;;;;;;;8.14;89.32;101572.00;4926048;29;20051;-80
2023/04/07 08:07:46;;;;;;;5.93;3.10;;;;;;;8.19;89.02;101570.25;4927660;29;20539;-80
2023/04/07 08:10:12;;;;;;;6.78;3.30;;;;;;;8.26;89.08;101571.94;4931500;29;20027;-80
2023/04/07 08:12:37;;;;;;;6.07;2.55;;;;;;;8.29;88.85;101576.22;4921369;29;20499;-80
2023/04/07 08:15:03;;;;;;;8.02;3.35;;;;;;;8.30;89.02;101578.84;4912881;29;20355;-80
2023/04/07 08:17:28;;;;;;;7.32;2.97;;;;;;;8.32;89.20;101579.69;4917420;29;20039;-80
2023/04/07 08:19:54;;;;;;;7.18;3.72;;;;;;;8.35;89.08;101579.69;4918133;29;20044;-79
2023/04/07 08:22:19;;;;;;;6.28;3.72;;;;;;;8.37;88.33;101574.47;4917319;29;20035;-79
2023/04/07 08:24:46;;;;;;;8.73;4.40;;;;;;;8.40;88.16;101581.38;4920730;29;20060;-80
2023/04/07 08:27:11;;;;;;;7.22;4.47;;;;;;;8.39;87.96;101584.84;4922918;29;20047;-80
2023/04/07 08:29:37;;;;;;;8.73;4.30;;;;;;;8.37;87.78;101578.81;4923065;29;20840;-80
2023/04/07 08:32:02;;;;;;;6.35;3.72;;;;;;;8.36;87.61;101585.72;4926932;29;20048;-80
2023/04/07 08:34:27;;;;;;;9.05;3.70;;;;;;;8.37;87.45;101589.19;4926456;29;20114;-80
2023/04/07 08:36:53;;;;;;;6.78;3.80;;;;;;;8.37;87.35;101592.63;4927509;29;20032;-80
2023/04/07 08:39:18;;;;;;;6.60;3.80;;;;;;;8.38;87.10;101588.28;4922163;29;20433;-80
2023/04/07 08:41:45;;;;;;;6.78;3.80;;;;;;;8.38;86.93;101596.06;4925107;29;20059;-80
2023/04/07 08:44:12;;;;;;;7.18;3.72;;;;;;;8.38;87.21;101594.34;4930362;28;21421;-80
2023/04/07 08:46:39;;;;;;;7.38;3.20;;;;;;;8.40;86.14;101591.75;4931276;29;20020;-80
2023/04/07 08:49:08;;;;;;;6.10;3.15;;;;;;;8.38;87.06;101596.94;4929696;29;20035;-80
2023/04/07 08:51:38;;;;;;;5.47;3.05;;;;;;;8.39;86.94;101600.38;4929235;29;20078;-81
2023/04/07 08:54:11;;;;;;;6.78;3.30;;;;;;;8.43;86.79;101603.00;4928785;29;20042;-81
2023/04/07 08:56:39;;;;;;;6.13;2.90;;;;;;;8.45;87.34;101609.03;4930952;29;20665;-80
2023/04/07 08:59:05;;;;;;;9.32;3.53;;;;;;;8.45;85.34;101608.16;4926965;29;20065;-80
2023/04/07 09:01:33;;;;;;;5.88;3.25;;;;;;;8.42;86.85;101605.56;4926220;29;20024;-80
2023/04/07 09:04:00;;;;;;;7.28;3.20;;;;;;;8.46;86.32;101609.88;4927828;28;20133;-80
2023/04/07 09:06:26;;;;;;;7.47;3.35;;;;;;;8.54;85.93;101623.69;4946651;28;20023;-80
2023/04/07 09:08:51;;;;;;;5.70;3.03;;;;;;;8.62;84.55;101614.16;4943675;28;20497;-80
2023/04/07 09:11:16;;;;;;;6.80;2.90;;;;;;;8.65;84.24;101616.72;4944834;28;20457;-81
2023/04/07 09:13:42;;;;;;;5.07;2.75;;;;;;;8.72;85.57;101611.50;4945630;28;20097;-80
2023/04/07 09:16:07;;;;;;;7.40;3.13;;;;;;;8.77;85.50;101620.13;4948487;28;20475;-80
2023/04/07 09:18:32;;;;;;;5.82;2.80;;;;;;;8.82;84.70;101623.56;4941200;28;20035;-80
2023/04/07 09:21:01;;;;;;;4.97;2.95;;;;;;;8.83;85.12;101620.09;4947628;28;20043;-81
2023/04/07 09:23:34;;;;;;;8.70;2.97;;;;;;;8.88;84.51;101615.72;4945570;28;20046;-80
2023/04/07 09:26:21;;;;;;;7.75;3.13;;;;;;;8.90;84.87;101613.97;4945284;28;20110;-80
2023/04/07 09:28:52;;;;;;;6.80;2.97;;;;;;;8.96;84.02;101626.94;4945330;28;20098;-80
2023/04/07 09:31:19;;;;;;;4.50;2.50;;;;;;;8.95;83.12;101627.81;4944722;28;20501;-80
2023/04/07 09:33:45;;;;;;;6.93;2.70;;;;;;;8.93;83.51;101633.88;4930847;28;20035;-80
2023/04/07 09:36:11;;;;;;;7.15;3.10;;;;;;;8.85;83.58;101626.16;4949931;28;20027;-80
2023/04/07 09:38:38;;;;;;;6.65;3.00;;;;;;;8.80;82.61;101631.34;4937556;28;20226;-80
2023/04/07 09:41:07;;;;;;;7.45;3.55;;;;;;;8.79;83.09;101626.16;4944766;28;20027;-81
2023/04/07 09:43:37;;;;;;;5.13;3.10;;;;;;;8.79;83.07;101618.38;4949451;28;20036;-79
2023/04/07 09:46:10;;;;;;;8.30;3.08;;;;;;;8.84;83.57;101629.59;4949695;28;20031;-79
2023/04/07 09:48:37;;;;;;;6.40;3.05;;;;;;;8.89;83.43;101632.16;4950322;28;20038;-79
2023/04/07 09:51:11;;;;;;;6.82;2.80;;;;;;;8.93;83.88;101621.75;4946898;28;20114;-80
2023/04/07 09:53:47;;;;;;;6.57;2.88;;;;;;;9.01;84.04;101628.66;4949394;28;20031;-79
2023/04/07 09:56:17;;;;;;;7.40;3.00;;;;;;;9.02;83.28;101630.38;4928022;28;20035;-79
2023/04/07 09:58:45;;;;;;;8.32;3.03;;;;;;;9.00;82.23;101637.31;4935075;28;20035;-80
2023/04/07 10:01:12;;;;;;;6.78;2.80;;;;;;;8.94;82.68;101639.06;4945172;28;20032;-79
2023/04/07 10:03:38;;;;;;;5.10;2.35;;;;;;;8.91;82.83;101633.03;4932422;28;20041;-79
2023/04/07 10:06:05;;;;;;;5.40;2.40;;;;;;;8.86;83.09;101640.84;4949049;28;20035;-81
2023/04/07 10:08:32;;;;;;;4.53;2.55;;;;;;;8.85;82.22;101635.66;4950591;28;20030;-80
2023/04/07 10:11:00;;;;;;;7.32;2.60;;;;;;;8.81;82.04;101632.22;4932713;28;20332;-80
2023/04/07 10:13:26;;;;;;;5.38;2.35;;;;;;;8.79;82.21;101641.75;4946974;28;20090;-80
2023/04/07 10:15:51;;;;;;;7.50;2.70;;;;;;;8.75;82.83;101638.31;4943292;28;20423;-79
2023/04/07 10:18:19;;;;;;;6.90;2.63;;;;;;;8.78;83.37;101642.59;4947067;28;20502;-79
2023/04/07 10:20:48;;;;;;;4.43;2.33;;;;;;;8.81;82.06;101647.78;4944955;28;20031;-79
2023/04/07 10:23:36;;;;;;;6.53;2.35;;;;;;;8.85;82.88;101641.72;4946534;28;20027;-79
2023/04/07 10:26:04;;;;;;;6.93;2.60;;;;;;;8.84;82.76;101640.00;4934969;28;20026;-79
2023/04/07 10:28:31;;;;;;;5.38;2.40;;;;;;;8.88;84.17;101641.66;4946561;28;20035;-79
2023/04/07 10:30:57;;;;;;;8.75;2.88;;;;;;;8.96;84.08;101650.28;4944162;28;20035;-79
2023/04/07 10:33:51;;;;;;;5.90;2.20;;;;;;;9.00;83.04;101658.06;4946620;28;20035;-79
2023/04/07 10:36:20;;;;;;;4.45;2.22;;;;;;;8.99;83.32;101657.19;4944506;28;20479;-79
2023/04/07 10:39:07;;;;;;;4.85;1.75;;;;;;;9.02;83.31;101666.72;4945501;28;20027;-79
2023/04/07 10:41:35;;;;;;;7.07;2.15;;;;;;;8.96;81.92;101663.25;4947971;28;20039;-80
2023/04/07 10:44:02;;;;;;;7.03;2.10;;;;;;;9.00;83.75;101663.25;4929245;28;20039;-79
2023/04/07 10:46:47;;;;;;;4.60;2.15;;;;;;;9.03;83.29;101665.84;4929562;28;20379;-80
2023/04/07 10:49:13;;;;;;;6.07;2.47;;;;;;;9.04;82.94;101659.78;4944712;28;20911;-81
2023/04/07 10:51:39;;;;;;;5.68;2.50;;;;;;;9.05;81.33;101666.69;4945081;28;20446;-79
2023/04/07 10:54:14;;;;;;;10.70;2.97;;;;;;;9.03;81.76;101663.25;4945553;28;20058;-80
2023/04/07 10:57:01;;;;;;;6.60;2.63;;;;;;;9.07;82.69;101664.91;4944407;28;20502;-80
2023/04/07 10:59:27;;;;;;;4.63;2.22;;;;;;;9.07;83.64;101664.91;4949858;28;21614;-80
2023/04/07 11:02:11;;;;;;;6.65;2.33;;;;;;;9.09;83.22;101663.19;4946845;28;20035;-80
2023/04/07 11:04:44;;;;;;;5.68;2.25;;;;;;;9.05;83.33;101671.88;4945000;28;20094;-81
2023/04/07 11:07:12;;;;;;;4.80;1.90;;;;;;;9.07;84.17;101670.13;4945444;28;20034;-79
2023/04/07 11:09:37;;;;;;;5.25;2.20;;;;;;;9.09;83.76;101670.97;4945491;28;20035;-80
2023/04/07 11:12:03;;;;;;;5.18;2.08;;;;;;;9.17;83.51;101678.72;4947910;28;20041;-80
2023/04/07 11:14:31;;;;;;;7.35;2.63;;;;;;;9.17;82.28;101674.41;4946825;28;20031;-80
2023/04/07 11:16:58;;;;;;;5.00;2.00;;;;;;;9.19;82.83;101682.16;4945622;28;20027;-80
2023/04/07 11:19:23;;;;;;;5.82;1.90;;;;;;;9.14;82.08;101677.00;4947506;28;20031;-80
2023/04/07 11:21:49;;;;;;;4.32;2.20;;;;;;;9.10;82.88;101681.38;4944157;28;20027;-79
2023/04/07 11:24:37;;;;;;;6.13;2.10;;;;;;;9.09;83.17;101678.75;4946473;28;20030;-80
2023/04/07 11:27:03;;;;;;;4.85;2.15;;;;;;;9.00;81.62;101679.66;4945417;28;20027;-80
2023/04/07 11:29:32;;;;;;;4.40;2.40;;;;;;;8.92;81.70;101692.69;4946557;28;20395;-81
2023/04/07 11:32:01;;;;;;;6.13;2.47;;;;;;;8.91;82.03;101690.13;4943575;28;20054;-81